sensor_id;sensor_type;location;lat;lon;timestamp;P1;durP1;ratioP1;P2;durP2;ratioP2
74900;SDS011;63461;51.416;6.758;2022-10-29T00:01:16;21.67;;;7.55;;
74900;SDS011;63461;51.416;6.758;2022-10-29T00:04:00;23.42;;;7.90;;
74900;SDS011;63461;51.416;6.758;2022-10-29T00:06:46;33.88;;;7.75;;
74900;SDS011;63461;51.416;6.758;2022-10-29T00:09:31;22.80;;;7.40;;
74900;SDS011;63461;51.416;6.758;2022-10-29T00:12:15;28.08;;;7.70;;
74900;SDS011;63461;51.416;6.758;2022-10-29T00:15:01;25.67;;;7.75;;
74900;SDS011;63461;51.416;6.758;2022-10-29T00:17:46;24.23;;;7.85;;
74900;SDS011;63461;51.416;6.758;2022-10-29T00:20:30;20.48;;;7.82;;
74900;SDS011;63461;51.416;6.758;2022-10-29T00:23:14;22.48;;;7.72;;
74900;SDS011;63461;51.416;6.758;2022-10-29T00:25:59;24.15;;;7.82;;
74900;SDS011;63461;51.416;6.758;2022-10-29T00:28:44;25.50;;;7.65;;
74900;SDS011;63461;51.416;6.758;2022-10-29T00:31:29;21.65;;;7.38;;
74900;SDS011;63461;51.416;6.758;2022-10-29T00:34:14;26.23;;;8.82;;
74900;SDS011;63461;51.416;6.758;2022-10-29T00:36:58;22.08;;;7.78;;
74900;SDS011;63461;51.416;6.758;2022-10-29T00:39:42;26.27;;;7.07;;
74900;SDS011;63461;51.416;6.758;2022-10-29T00:42:27;24.15;;;8.05;;
74900;SDS011;63461;51.416;6.758;2022-10-29T00:45:14;22.83;;;7.93;;
74900;SDS011;63461;51.416;6.758;2022-10-29T00:48:02;23.25;;;7.72;;
74900;SDS011;63461;51.416;6.758;2022-10-29T00:50:46;25.05;;;8.07;;
74900;SDS011;63461;51.416;6.758;2022-10-29T00:53:32;25.15;;;8.38;;
74900;SDS011;63461;51.416;6.758;2022-10-29T00:56:21;21.70;;;8.30;;
74900;SDS011;63461;51.416;6.758;2022-10-29T00:59:08;24.50;;;8.57;;
74900;SDS011;63461;51.416;6.758;2022-10-29T01:01:52;20.58;;;7.28;;
74900;SDS011;63461;51.416;6.758;2022-10-29T01:04:38;20.00;;;7.22;;
74900;SDS011;63461;51.416;6.758;2022-10-29T01:07:24;28.63;;;8.27;;
74900;SDS011;63461;51.416;6.758;2022-10-29T01:10:09;18.45;;;7.57;;
74900;SDS011;63461;51.416;6.758;2022-10-29T01:13:09;22.95;;;8.02;;
74900;SDS011;63461;51.416;6.758;2022-10-29T01:16:14;25.80;;;8.02;;
74900;SDS011;63461;51.416;6.758;2022-10-29T01:22:19;20.42;;;7.68;;
74900;SDS011;63461;51.416;6.758;2022-10-29T01:31:35;23.27;;;7.65;;
74900;SDS011;63461;51.416;6.758;2022-10-29T01:41:20;21.73;;;7.38;;
74900;SDS011;63461;51.416;6.758;2022-10-29T01:47:03;20.48;;;7.28;;
74900;SDS011;63461;51.416;6.758;2022-10-29T01:49:52;20.45;;;7.18;;
74900;SDS011;63461;51.416;6.758;2022-10-29T01:52:41;16.05;;;6.95;;
74900;SDS011;63461;51.416;6.758;2022-10-29T01:55:28;22.80;;;7.53;;
74900;SDS011;63461;51.416;6.758;2022-10-29T01:58:15;25.17;;;7.35;;
74900;SDS011;63461;51.416;6.758;2022-10-29T02:04:10;26.17;;;8.13;;
74900;SDS011;63461;51.416;6.758;2022-10-29T02:10:30;16.42;;;7.20;;
74900;SDS011;63461;51.416;6.758;2022-10-29T02:13:27;20.25;;;7.82;;
74900;SDS011;63461;51.416;6.758;2022-10-29T02:16:15;19.92;;;8.07;;
74900;SDS011;63461;51.416;6.758;2022-10-29T02:19:00;28.67;;;7.88;;
74900;SDS011;63461;51.416;6.758;2022-10-29T02:21:45;21.20;;;7.57;;
74900;SDS011;63461;51.416;6.758;2022-10-29T02:24:29;21.92;;;7.53;;
74900;SDS011;63461;51.416;6.758;2022-10-29T02:27:13;20.40;;;7.55;;
74900;SDS011;63461;51.416;6.758;2022-10-29T02:29:57;21.58;;;7.07;;
74900;SDS011;63461;51.416;6.758;2022-10-29T02:32:41;23.58;;;7.75;;
74900;SDS011;63461;51.416;6.758;2022-10-29T02:35:25;21.40;;;8.15;;
74900;SDS011;63461;51.416;6.758;2022-10-29T02:38:10;22.58;;;7.28;;
74900;SDS011;63461;51.416;6.758;2022-10-29T02:40:54;25.85;;;8.52;;
74900;SDS011;63461;51.416;6.758;2022-10-29T02:43:38;26.65;;;8.07;;
74900;SDS011;63461;51.416;6.758;2022-10-29T02:46:22;22.98;;;8.25;;
74900;SDS011;63461;51.416;6.758;2022-10-29T02:49:08;21.35;;;8.68;;
74900;SDS011;63461;51.416;6.758;2022-10-29T02:51:52;28.90;;;7.45;;
74900;SDS011;63461;51.416;6.758;2022-10-29T02:54:37;21.27;;;7.53;;
74900;SDS011;63461;51.416;6.758;2022-10-29T02:57:22;29.73;;;8.13;;
74900;SDS011;63461;51.416;6.758;2022-10-29T03:00:06;25.50;;;8.07;;
74900;SDS011;63461;51.416;6.758;2022-10-29T03:02:51;21.85;;;7.88;;
74900;SDS011;63461;51.416;6.758;2022-10-29T03:05:36;22.70;;;8.73;;
74900;SDS011;63461;51.416;6.758;2022-10-29T03:08:20;26.17;;;8.25;;
74900;SDS011;63461;51.416;6.758;2022-10-29T03:11:05;18.50;;;7.53;;
74900;SDS011;63461;51.416;6.758;2022-10-29T03:13:49;24.23;;;7.65;;
74900;SDS011;63461;51.416;6.758;2022-10-29T03:16:33;20.75;;;7.43;;
74900;SDS011;63461;51.416;6.758;2022-10-29T03:19:18;27.90;;;8.13;;
74900;SDS011;63461;51.416;6.758;2022-10-29T03:22:02;26.02;;;7.05;;
74900;SDS011;63461;51.416;6.758;2022-10-29T03:24:46;29.25;;;8.40;;
74900;SDS011;63461;51.416;6.758;2022-10-29T03:27:30;26.13;;;7.97;;
74900;SDS011;63461;51.416;6.758;2022-10-29T03:30:15;22.05;;;7.60;;
74900;SDS011;63461;51.416;6.758;2022-10-29T03:33:00;28.48;;;8.30;;
74900;SDS011;63461;51.416;6.758;2022-10-29T03:35:44;28.05;;;8.35;;
74900;SDS011;63461;51.416;6.758;2022-10-29T03:38:28;25.48;;;7.93;;
74900;SDS011;63461;51.416;6.758;2022-10-29T03:41:13;21.42;;;7.75;;
74900;SDS011;63461;51.416;6.758;2022-10-29T03:43:57;28.33;;;7.95;;
74900;SDS011;63461;51.416;6.758;2022-10-29T03:46:42;22.55;;;8.25;;
74900;SDS011;63461;51.416;6.758;2022-10-29T03:49:26;19.25;;;7.43;;
74900;SDS011;63461;51.416;6.758;2022-10-29T03:52:11;22.55;;;7.47;;
74900;SDS011;63461;51.416;6.758;2022-10-29T03:54:55;26.93;;;8.93;;
74900;SDS011;63461;51.416;6.758;2022-10-29T03:57:39;23.27;;;7.60;;
74900;SDS011;63461;51.416;6.758;2022-10-29T04:00:23;19.38;;;7.38;;
74900;SDS011;63461;51.416;6.758;2022-10-29T04:03:07;22.50;;;7.03;;
74900;SDS011;63461;51.416;6.758;2022-10-29T04:05:52;23.05;;;7.30;;
74900;SDS011;63461;51.416;6.758;2022-10-29T04:08:36;25.67;;;7.43;;
74900;SDS011;63461;51.416;6.758;2022-10-29T04:11:21;22.50;;;7.82;;
74900;SDS011;63461;51.416;6.758;2022-10-29T04:14:05;19.13;;;7.85;;
74900;SDS011;63461;51.416;6.758;2022-10-29T04:16:50;25.80;;;8.32;;
74900;SDS011;63461;51.416;6.758;2022-10-29T04:19:34;21.73;;;7.32;;
74900;SDS011;63461;51.416;6.758;2022-10-29T04:22:18;19.17;;;7.90;;
74900;SDS011;63461;51.416;6.758;2022-10-29T04:25:02;25.90;;;7.43;;
74900;SDS011;63461;51.416;6.758;2022-10-29T04:27:47;19.03;;;7.17;;
74900;SDS011;63461;51.416;6.758;2022-10-29T04:30:31;28.95;;;7.78;;
74900;SDS011;63461;51.416;6.758;2022-10-29T04:33:15;18.25;;;7.78;;
74900;SDS011;63461;51.416;6.758;2022-10-29T04:36:00;24.27;;;7.68;;
74900;SDS011;63461;51.416;6.758;2022-10-29T04:38:45;23.48;;;7.28;;
74900;SDS011;63461;51.416;6.758;2022-10-29T04:41:29;19.98;;;7.78;;
74900;SDS011;63461;51.416;6.758;2022-10-29T04:44:13;26.77;;;7.82;;
74900;SDS011;63461;51.416;6.758;2022-10-29T04:46:57;18.65;;;7.90;;
74900;SDS011;63461;51.416;6.758;2022-10-29T04:49:41;23.48;;;7.35;;
74900;SDS011;63461;51.416;6.758;2022-10-29T04:52:26;26.58;;;7.88;;
74900;SDS011;63461;51.416;6.758;2022-10-29T04:55:10;29.88;;;8.93;;
74900;SDS011;63461;51.416;6.758;2022-10-29T04:57:54;23.23;;;7.90;;
74900;SDS011;63461;51.416;6.758;2022-10-29T05:00:39;22.90;;;7.72;;
74900;SDS011;63461;51.416;6.758;2022-10-29T05:03:23;23.88;;;7.47;;
74900;SDS011;63461;51.416;6.758;2022-10-29T05:06:08;22.42;;;7.40;;
74900;SDS011;63461;51.416;6.758;2022-10-29T05:08:52;23.05;;;6.95;;
74900;SDS011;63461;51.416;6.758;2022-10-29T05:11:37;18.95;;;7.47;;
74900;SDS011;63461;51.416;6.758;2022-10-29T05:14:21;20.17;;;7.25;;
74900;SDS011;63461;51.416;6.758;2022-10-29T05:17:05;25.95;;;7.93;;
74900;SDS011;63461;51.416;6.758;2022-10-29T05:19:49;18.85;;;7.20;;
74900;SDS011;63461;51.416;6.758;2022-10-29T05:22:33;18.48;;;6.88;;
74900;SDS011;63461;51.416;6.758;2022-10-29T05:25:18;20.20;;;7.32;;
74900;SDS011;63461;51.416;6.758;2022-10-29T05:28:12;24.67;;;6.57;;
74900;SDS011;63461;51.416;6.758;2022-10-29T05:31:01;23.67;;;6.85;;
74900;SDS011;63461;51.416;6.758;2022-10-29T05:33:46;20.77;;;7.05;;
74900;SDS011;63461;51.416;6.758;2022-10-29T05:36:30;20.25;;;6.93;;
74900;SDS011;63461;51.416;6.758;2022-10-29T05:39:14;16.30;;;6.68;;
74900;SDS011;63461;51.416;6.758;2022-10-29T05:41:59;31.73;;;7.18;;
74900;SDS011;63461;51.416;6.758;2022-10-29T05:44:43;19.15;;;6.90;;
74900;SDS011;63461;51.416;6.758;2022-10-29T05:47:27;17.77;;;7.22;;
74900;SDS011;63461;51.416;6.758;2022-10-29T05:50:12;25.25;;;7.70;;
74900;SDS011;63461;51.416;6.758;2022-10-29T05:53:01;25.58;;;7.93;;
74900;SDS011;63461;51.416;6.758;2022-10-29T05:55:49;20.38;;;7.53;;
74900;SDS011;63461;51.416;6.758;2022-10-29T05:58:33;28.10;;;7.57;;
74900;SDS011;63461;51.416;6.758;2022-10-29T06:01:17;21.13;;;7.30;;
74900;SDS011;63461;51.416;6.758;2022-10-29T06:04:02;18.50;;;7.07;;
74900;SDS011;63461;51.416;6.758;2022-10-29T06:06:46;22.52;;;7.20;;
74900;SDS011;63461;51.416;6.758;2022-10-29T06:09:30;17.60;;;7.03;;
74900;SDS011;63461;51.416;6.758;2022-10-29T06:12:15;23.75;;;6.80;;
74900;SDS011;63461;51.416;6.758;2022-10-29T06:14:59;23.13;;;6.63;;
74900;SDS011;63461;51.416;6.758;2022-10-29T06:17:44;21.20;;;7.10;;
74900;SDS011;63461;51.416;6.758;2022-10-29T06:20:29;20.83;;;6.32;;
74900;SDS011;63461;51.416;6.758;2022-10-29T06:23:13;19.95;;;7.07;;
74900;SDS011;63461;51.416;6.758;2022-10-29T06:25:58;16.27;;;7.32;;
74900;SDS011;63461;51.416;6.758;2022-10-29T06:28:44;22.80;;;7.20;;
74900;SDS011;63461;51.416;6.758;2022-10-29T06:31:28;24.83;;;6.90;;
74900;SDS011;63461;51.416;6.758;2022-10-29T06:34:12;20.95;;;6.18;;
74900;SDS011;63461;51.416;6.758;2022-10-29T06:36:57;24.40;;;6.68;;
74900;SDS011;63461;51.416;6.758;2022-10-29T06:39:41;21.20;;;6.65;;
74900;SDS011;63461;51.416;6.758;2022-10-29T06:42:25;19.92;;;6.18;;
74900;SDS011;63461;51.416;6.758;2022-10-29T06:45:10;22.38;;;6.75;;
74900;SDS011;63461;51.416;6.758;2022-10-29T06:47:54;23.13;;;6.82;;
74900;SDS011;63461;51.416;6.758;2022-10-29T06:50:38;17.98;;;6.82;;
74900;SDS011;63461;51.416;6.758;2022-10-29T06:53:22;21.05;;;7.50;;
74900;SDS011;63461;51.416;6.758;2022-10-29T06:56:06;18.23;;;6.88;;
74900;SDS011;63461;51.416;6.758;2022-10-29T06:58:51;25.92;;;6.93;;
74900;SDS011;63461;51.416;6.758;2022-10-29T07:01:35;18.92;;;6.13;;
74900;SDS011;63461;51.416;6.758;2022-10-29T07:04:19;19.92;;;6.35;;
74900;SDS011;63461;51.416;6.758;2022-10-29T07:07:04;24.10;;;7.13;;
74900;SDS011;63461;51.416;6.758;2022-10-29T07:09:48;21.42;;;6.78;;
74900;SDS011;63461;51.416;6.758;2022-10-29T07:12:38;20.00;;;6.65;;
74900;SDS011;63461;51.416;6.758;2022-10-29T07:15:26;16.83;;;6.40;;
74900;SDS011;63461;51.416;6.758;2022-10-29T07:18:11;16.30;;;6.53;;
74900;SDS011;63461;51.416;6.758;2022-10-29T07:20:55;18.58;;;6.65;;
74900;SDS011;63461;51.416;6.758;2022-10-29T07:23:40;20.90;;;6.68;;
74900;SDS011;63461;51.416;6.758;2022-10-29T07:26:24;15.60;;;6.18;;
74900;SDS011;63461;51.416;6.758;2022-10-29T07:29:08;17.70;;;6.15;;
74900;SDS011;63461;51.416;6.758;2022-10-29T07:31:53;25.20;;;7.07;;
74900;SDS011;63461;51.416;6.758;2022-10-29T07:34:37;21.60;;;6.88;;
74900;SDS011;63461;51.416;6.758;2022-10-29T07:37:21;24.77;;;6.28;;
74900;SDS011;63461;51.416;6.758;2022-10-29T07:40:06;13.82;;;6.03;;
74900;SDS011;63461;51.416;6.758;2022-10-29T07:42:51;17.80;;;5.32;;
74900;SDS011;63461;51.416;6.758;2022-10-29T07:45:36;18.08;;;6.55;;
74900;SDS011;63461;51.416;6.758;2022-10-29T07:48:20;18.73;;;5.50;;
74900;SDS011;63461;51.416;6.758;2022-10-29T07:51:05;18.75;;;6.75;;
74900;SDS011;63461;51.416;6.758;2022-10-29T07:53:49;23.02;;;6.20;;
74900;SDS011;63461;51.416;6.758;2022-10-29T07:56:33;18.55;;;5.35;;
74900;SDS011;63461;51.416;6.758;2022-10-29T07:59:17;17.02;;;7.03;;
74900;SDS011;63461;51.416;6.758;2022-10-29T08:02:02;20.60;;;5.65;;
74900;SDS011;63461;51.416;6.758;2022-10-29T08:04:46;19.67;;;6.55;;
74900;SDS011;63461;51.416;6.758;2022-10-29T08:07:30;20.02;;;6.47;;
74900;SDS011;63461;51.416;6.758;2022-10-29T08:10:15;12.40;;;5.40;;
74900;SDS011;63461;51.416;6.758;2022-10-29T08:13:00;11.77;;;5.20;;
74900;SDS011;63461;51.416;6.758;2022-10-29T08:15:45;15.80;;;5.15;;
74900;SDS011;63461;51.416;6.758;2022-10-29T08:18:29;14.05;;;5.07;;
74900;SDS011;63461;51.416;6.758;2022-10-29T08:21:14;18.05;;;5.88;;
74900;SDS011;63461;51.416;6.758;2022-10-29T08:23:58;17.35;;;4.70;;
74900;SDS011;63461;51.416;6.758;2022-10-29T08:26:43;17.33;;;5.85;;
74900;SDS011;63461;51.416;6.758;2022-10-29T08:29:27;13.10;;;5.03;;
74900;SDS011;63461;51.416;6.758;2022-10-29T08:32:11;16.13;;;5.18;;
74900;SDS011;63461;51.416;6.758;2022-10-29T08:34:55;25.50;;;5.72;;
74900;SDS011;63461;51.416;6.758;2022-10-29T08:37:42;14.43;;;4.60;;
74900;SDS011;63461;51.416;6.758;2022-10-29T08:43:26;20.48;;;5.22;;
74900;SDS011;63461;51.416;6.758;2022-10-29T08:46:23;16.60;;;4.93;;
74900;SDS011;63461;51.416;6.758;2022-10-29T08:49:46;12.18;;;4.28;;
74900;SDS011;63461;51.416;6.758;2022-10-29T08:52:57;16.90;;;4.43;;
74900;SDS011;63461;51.416;6.758;2022-10-29T08:55:44;12.38;;;4.63;;
74900;SDS011;63461;51.416;6.758;2022-10-29T08:58:31;20.30;;;4.75;;
74900;SDS011;63461;51.416;6.758;2022-10-29T09:01:16;18.42;;;5.05;;
74900;SDS011;63461;51.416;6.758;2022-10-29T09:04:03;15.57;;;4.30;;
74900;SDS011;63461;51.416;6.758;2022-10-29T09:07:25;19.10;;;4.53;;
74900;SDS011;63461;51.416;6.758;2022-10-29T09:25:10;12.77;;;4.70;;
74900;SDS011;63461;51.416;6.758;2022-10-29T09:40:37;15.23;;;4.18;;
74900;SDS011;63461;51.416;6.758;2022-10-29T09:43:37;20.35;;;4.45;;
74900;SDS011;63461;51.416;6.758;2022-10-29T09:46:38;25.77;;;5.45;;
74900;SDS011;63461;51.416;6.758;2022-10-29T09:52:45;14.52;;;4.03;;
74900;SDS011;63461;51.416;6.758;2022-10-29T09:55:41;14.00;;;4.22;;
74900;SDS011;63461;51.416;6.758;2022-10-29T09:58:27;15.90;;;4.80;;
74900;SDS011;63461;51.416;6.758;2022-10-29T10:01:12;14.45;;;4.25;;
74900;SDS011;63461;51.416;6.758;2022-10-29T10:03:57;21.95;;;4.35;;
74900;SDS011;63461;51.416;6.758;2022-10-29T10:07:04;14.38;;;4.68;;
74900;SDS011;63461;51.416;6.758;2022-10-29T10:09:57;17.35;;;4.82;;
74900;SDS011;63461;51.416;6.758;2022-10-29T10:12:44;13.10;;;4.55;;
74900;SDS011;63461;51.416;6.758;2022-10-29T10:15:31;10.80;;;4.22;;
74900;SDS011;63461;51.416;6.758;2022-10-29T10:18:21;17.50;;;4.90;;
74900;SDS011;63461;51.416;6.758;2022-10-29T10:21:41;16.40;;;4.63;;
74900;SDS011;63461;51.416;6.758;2022-10-29T10:24:34;12.63;;;4.38;;
74900;SDS011;63461;51.416;6.758;2022-10-29T10:27:23;7.03;;;3.50;;
74900;SDS011;63461;51.416;6.758;2022-10-29T10:30:13;11.25;;;3.90;;
74900;SDS011;63461;51.416;6.758;2022-10-29T10:33:10;17.25;;;5.15;;
74900;SDS011;63461;51.416;6.758;2022-10-29T10:36:05;19.17;;;4.73;;
74900;SDS011;63461;51.416;6.758;2022-10-29T10:38:53;18.38;;;4.63;;
74900;SDS011;63461;51.416;6.758;2022-10-29T10:41:41;17.02;;;4.35;;
74900;SDS011;63461;51.416;6.758;2022-10-29T10:44:26;13.68;;;4.45;;
74900;SDS011;63461;51.416;6.758;2022-10-29T10:47:11;12.98;;;4.05;;
74900;SDS011;63461;51.416;6.758;2022-10-29T10:50:11;17.67;;;4.68;;
74900;SDS011;63461;51.416;6.758;2022-10-29T10:53:04;19.17;;;4.88;;
74900;SDS011;63461;51.416;6.758;2022-10-29T10:56:00;15.90;;;4.25;;
74900;SDS011;63461;51.416;6.758;2022-10-29T10:58:46;11.07;;;3.58;;
74900;SDS011;63461;51.416;6.758;2022-10-29T11:01:54;14.98;;;4.40;;
74900;SDS011;63461;51.416;6.758;2022-10-29T11:04:43;15.00;;;4.63;;
74900;SDS011;63461;51.416;6.758;2022-10-29T11:07:33;14.43;;;4.47;;
74900;SDS011;63461;51.416;6.758;2022-10-29T11:10:19;16.63;;;4.65;;
74900;SDS011;63461;51.416;6.758;2022-10-29T11:13:14;14.07;;;4.35;;
74900;SDS011;63461;51.416;6.758;2022-10-29T11:16:19;14.77;;;4.38;;
74900;SDS011;63461;51.416;6.758;2022-10-29T11:19:15;15.55;;;4.30;;
74900;SDS011;63461;51.416;6.758;2022-10-29T11:22:19;22.38;;;4.63;;
74900;SDS011;63461;51.416;6.758;2022-10-29T11:25:18;22.05;;;6.95;;
74900;SDS011;63461;51.416;6.758;2022-10-29T11:31:39;17.27;;;4.47;;
74900;SDS011;63461;51.416;6.758;2022-10-29T11:34:29;11.88;;;3.95;;
74900;SDS011;63461;51.416;6.758;2022-10-29T11:37:31;14.15;;;4.47;;
74900;SDS011;63461;51.416;6.758;2022-10-29T11:44:08;14.65;;;3.95;;
74900;SDS011;63461;51.416;6.758;2022-10-29T11:59:43;20.30;;;4.60;;
74900;SDS011;63461;51.416;6.758;2022-10-29T12:12:08;20.13;;;4.25;;
74900;SDS011;63461;51.416;6.758;2022-10-29T12:17:52;16.73;;;5.03;;
74900;SDS011;63461;51.416;6.758;2022-10-29T12:27:42;16.33;;;5.20;;
74900;SDS011;63461;51.416;6.758;2022-10-29T12:39:33;18.23;;;4.15;;
74900;SDS011;63461;51.416;6.758;2022-10-29T12:42:22;16.60;;;4.47;;
74900;SDS011;63461;51.416;6.758;2022-10-29T12:45:23;17.65;;;4.55;;
74900;SDS011;63461;51.416;6.758;2022-10-29T12:51:42;16.38;;;4.60;;
74900;SDS011;63461;51.416;6.758;2022-10-29T12:54:42;14.02;;;3.80;;
74900;SDS011;63461;51.416;6.758;2022-10-29T12:57:30;13.18;;;3.60;;
74900;SDS011;63461;51.416;6.758;2022-10-29T13:03:06;12.73;;;4.68;;
74900;SDS011;63461;51.416;6.758;2022-10-29T13:05:50;16.15;;;4.35;;
74900;SDS011;63461;51.416;6.758;2022-10-29T13:08:34;17.52;;;5.00;;
74900;SDS011;63461;51.416;6.758;2022-10-29T13:11:21;17.85;;;4.57;;
74900;SDS011;63461;51.416;6.758;2022-10-29T13:14:07;15.98;;;4.57;;
74900;SDS011;63461;51.416;6.758;2022-10-29T13:16:53;14.30;;;4.20;;
74900;SDS011;63461;51.416;6.758;2022-10-29T13:19:48;20.02;;;4.75;;
74900;SDS011;63461;51.416;6.758;2022-10-29T13:33:49;18.83;;;4.30;;
74900;SDS011;63461;51.416;6.758;2022-10-29T13:39:20;22.58;;;4.82;;
74900;SDS011;63461;51.416;6.758;2022-10-29T13:42:06;17.20;;;4.50;;
74900;SDS011;63461;51.416;6.758;2022-10-29T13:44:54;24.77;;;5.03;;
74900;SDS011;63461;51.416;6.758;2022-10-29T13:47:39;13.70;;;5.07;;
74900;SDS011;63461;51.416;6.758;2022-10-29T13:50:24;16.20;;;3.97;;
74900;SDS011;63461;51.416;6.758;2022-10-29T13:53:10;18.35;;;4.50;;
74900;SDS011;63461;51.416;6.758;2022-10-29T13:55:58;20.45;;;4.75;;
74900;SDS011;63461;51.416;6.758;2022-10-29T13:58:43;22.80;;;4.95;;
74900;SDS011;63461;51.416;6.758;2022-10-29T14:01:31;21.65;;;4.80;;
74900;SDS011;63461;51.416;6.758;2022-10-29T14:04:21;30.73;;;5.53;;
74900;SDS011;63461;51.416;6.758;2022-10-29T14:07:10;28.27;;;5.93;;
74900;SDS011;63461;51.416;6.758;2022-10-29T14:10:02;19.67;;;4.25;;
74900;SDS011;63461;51.416;6.758;2022-10-29T14:12:56;22.05;;;5.13;;
74900;SDS011;63461;51.416;6.758;2022-10-29T14:15:58;18.05;;;4.40;;
74900;SDS011;63461;51.416;6.758;2022-10-29T14:18:43;13.70;;;4.15;;
74900;SDS011;63461;51.416;6.758;2022-10-29T14:21:35;16.80;;;3.95;;
74900;SDS011;63461;51.416;6.758;2022-10-29T14:24:21;18.55;;;5.32;;
74900;SDS011;63461;51.416;6.758;2022-10-29T14:27:05;16.45;;;4.75;;
74900;SDS011;63461;51.416;6.758;2022-10-29T14:29:50;19.35;;;6.10;;
74900;SDS011;63461;51.416;6.758;2022-10-29T14:32:36;22.60;;;7.10;;
74900;SDS011;63461;51.416;6.758;2022-10-29T14:35:21;14.68;;;4.15;;
74900;SDS011;63461;51.416;6.758;2022-10-29T14:38:06;28.40;;;6.55;;
74900;SDS011;63461;51.416;6.758;2022-10-29T14:40:51;22.92;;;6.05;;
74900;SDS011;63461;51.416;6.758;2022-10-29T14:43:36;19.42;;;5.60;;
74900;SDS011;63461;51.416;6.758;2022-10-29T14:46:25;21.73;;;5.28;;
74900;SDS011;63461;51.416;6.758;2022-10-29T14:49:16;24.98;;;6.43;;
74900;SDS011;63461;51.416;6.758;2022-10-29T14:52:05;16.70;;;4.80;;
74900;SDS011;63461;51.416;6.758;2022-10-29T14:55:01;16.85;;;5.30;;
74900;SDS011;63461;51.416;6.758;2022-10-29T14:57:52;15.57;;;4.43;;
74900;SDS011;63461;51.416;6.758;2022-10-29T15:01:05;13.45;;;4.50;;
74900;SDS011;63461;51.416;6.758;2022-10-29T15:03:55;17.38;;;5.32;;
74900;SDS011;63461;51.416;6.758;2022-10-29T15:06:41;12.00;;;4.00;;
74900;SDS011;63461;51.416;6.758;2022-10-29T15:09:26;20.23;;;4.85;;
74900;SDS011;63461;51.416;6.758;2022-10-29T15:12:17;14.00;;;3.58;;
74900;SDS011;63461;51.416;6.758;2022-10-29T15:17:54;12.93;;;4.10;;
74900;SDS011;63461;51.416;6.758;2022-10-29T15:23:48;15.63;;;3.92;;
74900;SDS011;63461;51.416;6.758;2022-10-29T15:26:46;17.38;;;5.15;;
74900;SDS011;63461;51.416;6.758;2022-10-29T15:29:36;15.20;;;5.05;;
74900;SDS011;63461;51.416;6.758;2022-10-29T15:32:22;25.63;;;4.57;;
74900;SDS011;63461;51.416;6.758;2022-10-29T15:35:07;14.60;;;5.82;;
74900;SDS011;63461;51.416;6.758;2022-10-29T15:37:53;26.80;;;6.97;;
74900;SDS011;63461;51.416;6.758;2022-10-29T15:40:39;21.58;;;5.57;;
74900;SDS011;63461;51.416;6.758;2022-10-29T15:43:53;18.27;;;5.53;;
74900;SDS011;63461;51.416;6.758;2022-10-29T15:46:43;16.38;;;5.20;;
74900;SDS011;63461;51.416;6.758;2022-10-29T15:49:31;23.88;;;5.40;;
74900;SDS011;63461;51.416;6.758;2022-10-29T15:52:16;17.70;;;4.13;;
74900;SDS011;63461;51.416;6.758;2022-10-29T15:55:08;16.23;;;4.45;;
74900;SDS011;63461;51.416;6.758;2022-10-29T16:00:49;17.63;;;4.20;;
74900;SDS011;63461;51.416;6.758;2022-10-29T16:03:35;13.27;;;4.25;;
74900;SDS011;63461;51.416;6.758;2022-10-29T16:06:21;14.63;;;4.65;;
74900;SDS011;63461;51.416;6.758;2022-10-29T16:09:08;21.33;;;6.00;;
74900;SDS011;63461;51.416;6.758;2022-10-29T16:12:01;21.50;;;6.80;;
74900;SDS011;63461;51.416;6.758;2022-10-29T16:14:45;16.92;;;7.22;;
74900;SDS011;63461;51.416;6.758;2022-10-29T16:17:30;18.42;;;6.90;;
74900;SDS011;63461;51.416;6.758;2022-10-29T16:20:16;19.88;;;8.40;;
74900;SDS011;63461;51.416;6.758;2022-10-29T16:23:01;21.15;;;7.28;;
74900;SDS011;63461;51.416;6.758;2022-10-29T16:25:46;19.55;;;6.22;;
74900;SDS011;63461;51.416;6.758;2022-10-29T16:28:30;20.42;;;5.88;;
74900;SDS011;63461;51.416;6.758;2022-10-29T16:31:21;14.82;;;5.63;;
74900;SDS011;63461;51.416;6.758;2022-10-29T16:34:08;22.48;;;6.32;;
74900;SDS011;63461;51.416;6.758;2022-10-29T16:36:56;23.13;;;6.57;;
74900;SDS011;63461;51.416;6.758;2022-10-29T16:39:40;22.90;;;8.23;;
74900;SDS011;63461;51.416;6.758;2022-10-29T16:42:32;19.45;;;6.50;;
74900;SDS011;63461;51.416;6.758;2022-10-29T16:45:19;38.08;;;8.50;;
74900;SDS011;63461;51.416;6.758;2022-10-29T16:48:04;25.48;;;7.78;;
74900;SDS011;63461;51.416;6.758;2022-10-29T16:50:49;20.85;;;7.45;;
74900;SDS011;63461;51.416;6.758;2022-10-29T16:53:33;21.85;;;6.47;;
74900;SDS011;63461;51.416;6.758;2022-10-29T16:56:18;26.23;;;7.57;;
74900;SDS011;63461;51.416;6.758;2022-10-29T16:59:02;16.02;;;5.72;;
74900;SDS011;63461;51.416;6.758;2022-10-29T17:01:47;25.98;;;6.88;;
74900;SDS011;63461;51.416;6.758;2022-10-29T17:04:31;19.35;;;4.72;;
74900;SDS011;63461;51.416;6.758;2022-10-29T17:07:16;25.52;;;5.50;;
74900;SDS011;63461;51.416;6.758;2022-10-29T17:10:01;16.92;;;5.35;;
74900;SDS011;63461;51.416;6.758;2022-10-29T17:12:46;24.70;;;6.07;;
74900;SDS011;63461;51.416;6.758;2022-10-29T17:15:30;22.67;;;5.40;;
74900;SDS011;63461;51.416;6.758;2022-10-29T17:18:15;17.98;;;5.25;;
74900;SDS011;63461;51.416;6.758;2022-10-29T17:21:00;14.98;;;5.03;;
74900;SDS011;63461;51.416;6.758;2022-10-29T17:23:44;13.88;;;5.93;;
74900;SDS011;63461;51.416;6.758;2022-10-29T17:26:29;19.48;;;6.47;;
74900;SDS011;63461;51.416;6.758;2022-10-29T17:29:13;15.55;;;5.40;;
74900;SDS011;63461;51.416;6.758;2022-10-29T17:31:57;15.57;;;5.13;;
74900;SDS011;63461;51.416;6.758;2022-10-29T17:34:42;16.60;;;4.97;;
74900;SDS011;63461;51.416;6.758;2022-10-29T17:37:26;13.35;;;4.72;;
74900;SDS011;63461;51.416;6.758;2022-10-29T17:40:11;17.00;;;4.57;;
74900;SDS011;63461;51.416;6.758;2022-10-29T17:42:56;11.88;;;4.47;;
74900;SDS011;63461;51.416;6.758;2022-10-29T17:45:40;14.95;;;4.63;;
74900;SDS011;63461;51.416;6.758;2022-10-29T17:48:26;17.55;;;4.50;;
74900;SDS011;63461;51.416;6.758;2022-10-29T17:51:10;21.58;;;4.55;;
74900;SDS011;63461;51.416;6.758;2022-10-29T17:53:54;23.02;;;4.90;;
74900;SDS011;63461;51.416;6.758;2022-10-29T17:56:39;18.83;;;5.03;;
74900;SDS011;63461;51.416;6.758;2022-10-29T17:59:23;13.25;;;4.53;;
74900;SDS011;63461;51.416;6.758;2022-10-29T18:02:08;19.77;;;5.50;;
74900;SDS011;63461;51.416;6.758;2022-10-29T18:04:53;15.02;;;5.30;;
74900;SDS011;63461;51.416;6.758;2022-10-29T18:07:38;19.75;;;5.45;;
74900;SDS011;63461;51.416;6.758;2022-10-29T18:10:22;15.00;;;4.68;;
74900;SDS011;63461;51.416;6.758;2022-10-29T18:13:08;14.80;;;4.90;;
74900;SDS011;63461;51.416;6.758;2022-10-29T18:15:52;21.77;;;5.20;;
74900;SDS011;63461;51.416;6.758;2022-10-29T18:18:36;15.77;;;4.35;;
74900;SDS011;63461;51.416;6.758;2022-10-29T18:21:21;12.45;;;4.63;;
74900;SDS011;63461;51.416;6.758;2022-10-29T18:24:06;13.48;;;4.47;;
74900;SDS011;63461;51.416;6.758;2022-10-29T18:26:51;16.58;;;5.13;;
74900;SDS011;63461;51.416;6.758;2022-10-29T18:29:35;20.73;;;4.38;;
74900;SDS011;63461;51.416;6.758;2022-10-29T18:32:19;16.23;;;5.05;;
74900;SDS011;63461;51.416;6.758;2022-10-29T18:35:04;10.90;;;4.15;;
74900;SDS011;63461;51.416;6.758;2022-10-29T18:37:48;14.32;;;4.47;;
74900;SDS011;63461;51.416;6.758;2022-10-29T18:40:33;20.40;;;4.68;;
74900;SDS011;63461;51.416;6.758;2022-10-29T18:43:16;16.77;;;4.80;;
74900;SDS011;63461;51.416;6.758;2022-10-29T18:46:03;18.25;;;6.82;;
74900;SDS011;63461;51.416;6.758;2022-10-29T18:48:49;13.95;;;4.95;;